sensor_id;sensor_type;location;lat;lon;timestamp;P1;durP1;ratioP1;P2;durP2;ratioP2
63567;SDS011;49715;42.386;20.434;2022-10-30T00:00:51;26.48;;;16.80;;
63567;SDS011;49715;42.386;20.434;2022-10-30T00:03:17;28.43;;;16.40;;
63567;SDS011;49715;42.386;20.434;2022-10-30T00:05:45;28.50;;;16.43;;
63567;SDS011;49715;42.386;20.434;2022-10-30T00:08:13;32.60;;;17.33;;
63567;SDS011;49715;42.386;20.434;2022-10-30T00:10:41;31.65;;;17.27;;
63567;SDS011;49715;42.386;20.434;2022-10-30T00:13:08;34.65;;;17.75;;
63567;SDS011;49715;42.386;20.434;2022-10-30T00:15:35;35.80;;;18.02;;
63567;SDS011;49715;42.386;20.434;2022-10-30T00:18:02;30.05;;;19.00;;
63567;SDS011;49715;42.386;20.434;2022-10-30T00:20:28;33.10;;;18.67;;
63567;SDS011;49715;42.386;20.434;2022-10-30T00:22:54;32.20;;;18.57;;
63567;SDS011;49715;42.386;20.434;2022-10-30T00:25:21;30.50;;;19.17;;
63567;SDS011;49715;42.386;20.434;2022-10-30T00:27:47;33.27;;;18.87;;
63567;SDS011;49715;42.386;20.434;2022-10-30T00:30:13;31.38;;;18.83;;
63567;SDS011;49715;42.386;20.434;2022-10-30T00:35:08;23.20;;;14.27;;
63567;SDS011;49715;42.386;20.434;2022-10-30T00:37:35;24.60;;;13.45;;
63567;SDS011;49715;42.386;20.434;2022-10-30T00:40:02;30.73;;;17.23;;
63567;SDS011;49715;42.386;20.434;2022-10-30T00:42:31;29.17;;;18.48;;
63567;SDS011;49715;42.386;20.434;2022-10-30T00:44:57;29.30;;;17.15;;
63567;SDS011;49715;42.386;20.434;2022-10-30T00:47:25;24.10;;;13.50;;
63567;SDS011;49715;42.386;20.434;2022-10-30T00:52:24;29.55;;;12.75;;
63567;SDS011;49715;42.386;20.434;2022-10-30T00:54:54;26.00;;;13.82;;
63567;SDS011;49715;42.386;20.434;2022-10-30T00:57:22;27.38;;;14.63;;
63567;SDS011;49715;42.386;20.434;2022-10-30T00:59:49;34.33;;;18.92;;
63567;SDS011;49715;42.386;20.434;2022-10-30T01:02:17;34.95;;;17.92;;
63567;SDS011;49715;42.386;20.434;2022-10-30T01:04:45;85.75;;;40.92;;
63567;SDS011;49715;42.386;20.434;2022-10-30T01:07:14;75.28;;;39.30;;
63567;SDS011;49715;42.386;20.434;2022-10-30T01:09:41;57.78;;;30.75;;
63567;SDS011;49715;42.386;20.434;2022-10-30T01:12:09;67.13;;;37.00;;
63567;SDS011;49715;42.386;20.434;2022-10-30T01:14:38;59.78;;;30.45;;
63567;SDS011;49715;42.386;20.434;2022-10-30T01:17:11;38.67;;;22.17;;
63567;SDS011;49715;42.386;20.434;2022-10-30T01:33:43;31.80;;;16.40;;
63567;SDS011;49715;42.386;20.434;2022-10-30T01:39:06;25.58;;;14.65;;
63567;SDS011;49715;42.386;20.434;2022-10-30T01:41:37;22.60;;;13.45;;
63567;SDS011;49715;42.386;20.434;2022-10-30T01:44:06;21.47;;;13.77;;
63567;SDS011;49715;42.386;20.434;2022-10-30T01:46:48;22.23;;;14.23;;
63567;SDS011;49715;42.386;20.434;2022-10-30T01:49:35;23.92;;;14.57;;
63567;SDS011;49715;42.386;20.434;2022-10-30T01:55:18;31.33;;;19.10;;
63567;SDS011;49715;42.386;20.434;2022-10-30T01:57:58;28.05;;;19.88;;
63567;SDS011;49715;42.386;20.434;2022-10-30T02:00:39;34.17;;;20.58;;
63567;SDS011;49715;42.386;20.434;2022-10-30T02:03:11;29.33;;;20.50;;
63567;SDS011;49715;42.386;20.434;2022-10-30T02:05:41;29.60;;;19.25;;
63567;SDS011;49715;42.386;20.434;2022-10-30T02:08:11;24.77;;;17.67;;
63567;SDS011;49715;42.386;20.434;2022-10-30T02:10:39;25.48;;;16.63;;
63567;SDS011;49715;42.386;20.434;2022-10-30T02:13:08;24.77;;;16.27;;
63567;SDS011;49715;42.386;20.434;2022-10-30T02:15:34;21.63;;;15.60;;
63567;SDS011;49715;42.386;20.434;2022-10-30T02:18:01;22.52;;;15.25;;
63567;SDS011;49715;42.386;20.434;2022-10-30T02:20:28;22.00;;;14.23;;
63567;SDS011;49715;42.386;20.434;2022-10-30T02:22:54;19.08;;;13.25;;
63567;SDS011;49715;42.386;20.434;2022-10-30T02:25:21;25.48;;;14.48;;
63567;SDS011;49715;42.386;20.434;2022-10-30T02:27:48;22.23;;;14.53;;
63567;SDS011;49715;42.386;20.434;2022-10-30T02:30:14;23.60;;;15.30;;
63567;SDS011;49715;42.386;20.434;2022-10-30T02:32:40;19.70;;;13.95;;
63567;SDS011;49715;42.386;20.434;2022-10-30T02:35:07;23.23;;;14.33;;
63567;SDS011;49715;42.386;20.434;2022-10-30T02:37:34;22.92;;;14.50;;
63567;SDS011;49715;42.386;20.434;2022-10-30T02:40:04;23.55;;;14.38;;
63567;SDS011;49715;42.386;20.434;2022-10-30T02:42:33;20.27;;;14.45;;
63567;SDS011;49715;42.386;20.434;2022-10-30T02:45:00;22.10;;;13.50;;
63567;SDS011;49715;42.386;20.434;2022-10-30T02:47:29;20.08;;;14.23;;
63567;SDS011;49715;42.386;20.434;2022-10-30T02:49:56;23.17;;;14.15;;
63567;SDS011;49715;42.386;20.434;2022-10-30T02:52:22;23.50;;;14.40;;
63567;SDS011;49715;42.386;20.434;2022-10-30T02:54:48;21.88;;;14.30;;
63567;SDS011;49715;42.386;20.434;2022-10-30T02:57:15;21.73;;;14.68;;
63567;SDS011;49715;42.386;20.434;2022-10-30T02:59:41;25.17;;;14.97;;
63567;SDS011;49715;42.386;20.434;2022-10-30T03:02:07;20.33;;;13.90;;
63567;SDS011;49715;42.386;20.434;2022-10-30T03:04:34;20.70;;;14.00;;
63567;SDS011;49715;42.386;20.434;2022-10-30T03:07:00;21.75;;;14.48;;
63567;SDS011;49715;42.386;20.434;2022-10-30T03:09:27;21.10;;;14.47;;
63567;SDS011;49715;42.386;20.434;2022-10-30T03:11:53;18.95;;;13.80;;
63567;SDS011;49715;42.386;20.434;2022-10-30T03:14:22;22.92;;;14.05;;
63567;SDS011;49715;42.386;20.434;2022-10-30T03:16:48;20.07;;;13.43;;
63567;SDS011;49715;42.386;20.434;2022-10-30T03:19:17;20.55;;;13.18;;
63567;SDS011;49715;42.386;20.434;2022-10-30T03:21:45;17.83;;;13.18;;
63567;SDS011;49715;42.386;20.434;2022-10-30T03:24:13;21.00;;;13.80;;
63567;SDS011;49715;42.386;20.434;2022-10-30T03:26:39;19.92;;;14.45;;
63567;SDS011;49715;42.386;20.434;2022-10-30T03:29:07;19.67;;;13.63;;
63567;SDS011;49715;42.386;20.434;2022-10-30T03:31:33;19.67;;;13.55;;
63567;SDS011;49715;42.386;20.434;2022-10-30T03:34:10;18.23;;;13.55;;
63567;SDS011;49715;42.386;20.434;2022-10-30T03:36:36;25.02;;;13.52;;
63567;SDS011;49715;42.386;20.434;2022-10-30T03:39:03;21.47;;;13.07;;
63567;SDS011;49715;42.386;20.434;2022-10-30T03:41:31;16.83;;;12.35;;
63567;SDS011;49715;42.386;20.434;2022-10-30T03:43:57;19.90;;;13.80;;
63567;SDS011;49715;42.386;20.434;2022-10-30T03:46:24;17.57;;;13.40;;
63567;SDS011;49715;42.386;20.434;2022-10-30T03:48:52;20.35;;;13.63;;
63567;SDS011;49715;42.386;20.434;2022-10-30T03:51:19;19.47;;;13.60;;
63567;SDS011;49715;42.386;20.434;2022-10-30T03:53:46;19.80;;;13.45;;
63567;SDS011;49715;42.386;20.434;2022-10-30T03:56:12;25.97;;;13.63;;
63567;SDS011;49715;42.386;20.434;2022-10-30T03:58:45;23.80;;;14.73;;
63567;SDS011;49715;42.386;20.434;2022-10-30T04:01:13;24.65;;;17.10;;
63567;SDS011;49715;42.386;20.434;2022-10-30T04:03:42;39.50;;;22.83;;
63567;SDS011;49715;42.386;20.434;2022-10-30T04:06:10;33.58;;;21.08;;
63567;SDS011;49715;42.386;20.434;2022-10-30T04:08:37;38.93;;;22.03;;
63567;SDS011;49715;42.386;20.434;2022-10-30T04:11:03;41.23;;;24.90;;
63567;SDS011;49715;42.386;20.434;2022-10-30T04:13:30;39.95;;;23.13;;
63567;SDS011;49715;42.386;20.434;2022-10-30T04:15:56;31.77;;;19.70;;
63567;SDS011;49715;42.386;20.434;2022-10-30T04:18:23;28.43;;;19.63;;
63567;SDS011;49715;42.386;20.434;2022-10-30T04:20:50;24.98;;;16.98;;
63567;SDS011;49715;42.386;20.434;2022-10-30T04:23:17;22.93;;;15.43;;
63567;SDS011;49715;42.386;20.434;2022-10-30T04:25:44;23.75;;;14.40;;
63567;SDS011;49715;42.386;20.434;2022-10-30T04:28:11;24.40;;;15.27;;
63567;SDS011;49715;42.386;20.434;2022-10-30T04:30:40;23.88;;;15.60;;
63567;SDS011;49715;42.386;20.434;2022-10-30T04:33:08;24.10;;;15.37;;
63567;SDS011;49715;42.386;20.434;2022-10-30T04:35:37;24.08;;;15.30;;
63567;SDS011;49715;42.386;20.434;2022-10-30T04:38:13;27.48;;;15.20;;
63567;SDS011;49715;42.386;20.434;2022-10-30T04:40:42;23.10;;;15.27;;
63567;SDS011;49715;42.386;20.434;2022-10-30T04:43:10;23.38;;;15.40;;
63567;SDS011;49715;42.386;20.434;2022-10-30T04:45:38;25.05;;;15.73;;
63567;SDS011;49715;42.386;20.434;2022-10-30T04:50:35;22.75;;;16.00;;
63567;SDS011;49715;42.386;20.434;2022-10-30T04:53:11;22.35;;;15.93;;
63567;SDS011;49715;42.386;20.434;2022-10-30T04:55:40;26.47;;;15.23;;
63567;SDS011;49715;42.386;20.434;2022-10-30T04:58:10;24.30;;;16.40;;
63567;SDS011;49715;42.386;20.434;2022-10-30T05:00:39;23.20;;;15.32;;
63567;SDS011;49715;42.386;20.434;2022-10-30T05:03:16;27.92;;;16.95;;
63567;SDS011;49715;42.386;20.434;2022-10-30T05:05:44;27.98;;;18.35;;
63567;SDS011;49715;42.386;20.434;2022-10-30T05:08:12;24.73;;;17.40;;
63567;SDS011;49715;42.386;20.434;2022-10-30T05:10:39;29.60;;;16.63;;
63567;SDS011;49715;42.386;20.434;2022-10-30T05:13:05;28.67;;;20.05;;
63567;SDS011;49715;42.386;20.434;2022-10-30T05:15:33;20.60;;;15.35;;
63567;SDS011;49715;42.386;20.434;2022-10-30T05:17:59;23.48;;;16.55;;
63567;SDS011;49715;42.386;20.434;2022-10-30T05:20:26;28.55;;;19.63;;
63567;SDS011;49715;42.386;20.434;2022-10-30T05:22:56;35.67;;;20.80;;
63567;SDS011;49715;42.386;20.434;2022-10-30T05:25:24;37.03;;;20.48;;
63567;SDS011;49715;42.386;20.434;2022-10-30T05:27:56;29.17;;;19.67;;
63567;SDS011;49715;42.386;20.434;2022-10-30T05:30:25;37.03;;;24.63;;
63567;SDS011;49715;42.386;20.434;2022-10-30T05:35:25;32.85;;;22.85;;
63567;SDS011;49715;42.386;20.434;2022-10-30T05:37:52;38.85;;;25.27;;
63567;SDS011;49715;42.386;20.434;2022-10-30T05:40:19;35.40;;;25.07;;
63567;SDS011;49715;42.386;20.434;2022-10-30T05:42:46;40.97;;;25.00;;
63567;SDS011;49715;42.386;20.434;2022-10-30T05:45:13;33.55;;;22.98;;
63567;SDS011;49715;42.386;20.434;2022-10-30T05:47:42;35.95;;;23.67;;
63567;SDS011;49715;42.386;20.434;2022-10-30T05:50:10;42.92;;;26.80;;
63567;SDS011;49715;42.386;20.434;2022-10-30T05:52:38;41.05;;;24.17;;
63567;SDS011;49715;42.386;20.434;2022-10-30T05:55:05;42.67;;;25.45;;
63567;SDS011;49715;42.386;20.434;2022-10-30T05:57:54;37.70;;;21.05;;
63567;SDS011;49715;42.386;20.434;2022-10-30T06:00:21;41.78;;;24.02;;
63567;SDS011;49715;42.386;20.434;2022-10-30T06:02:47;42.75;;;24.25;;
63567;SDS011;49715;42.386;20.434;2022-10-30T06:05:15;48.28;;;26.00;;
63567;SDS011;49715;42.386;20.434;2022-10-30T06:07:42;51.20;;;28.67;;
63567;SDS011;49715;42.386;20.434;2022-10-30T06:10:08;38.00;;;21.40;;
63567;SDS011;49715;42.386;20.434;2022-10-30T06:12:40;37.58;;;22.45;;
63567;SDS011;49715;42.386;20.434;2022-10-30T06:15:27;35.70;;;20.67;;
63567;SDS011;49715;42.386;20.434;2022-10-30T06:17:54;42.95;;;25.00;;
63567;SDS011;49715;42.386;20.434;2022-10-30T06:20:38;48.03;;;33.42;;
63567;SDS011;49715;42.386;20.434;2022-10-30T06:23:24;44.53;;;28.05;;
63567;SDS011;49715;42.386;20.434;2022-10-30T06:26:02;48.92;;;29.83;;
63567;SDS011;49715;42.386;20.434;2022-10-30T06:28:40;49.22;;;29.08;;
63567;SDS011;49715;42.386;20.434;2022-10-30T06:31:06;42.17;;;27.83;;
63567;SDS011;49715;42.386;20.434;2022-10-30T06:33:33;49.90;;;27.88;;
63567;SDS011;49715;42.386;20.434;2022-10-30T06:36:00;50.15;;;29.27;;
63567;SDS011;49715;42.386;20.434;2022-10-30T06:38:27;56.50;;;37.17;;
63567;SDS011;49715;42.386;20.434;2022-10-30T06:43:39;68.32;;;39.10;;
63567;SDS011;49715;42.386;20.434;2022-10-30T06:46:17;73.85;;;41.42;;
63567;SDS011;49715;42.386;20.434;2022-10-30T06:48:44;59.67;;;37.15;;
63567;SDS011;49715;42.386;20.434;2022-10-30T06:51:11;55.67;;;31.60;;
63567;SDS011;49715;42.386;20.434;2022-10-30T06:53:41;55.72;;;31.05;;
63567;SDS011;49715;42.386;20.434;2022-10-30T06:56:26;59.05;;;30.20;;
63567;SDS011;49715;42.386;20.434;2022-10-30T06:59:05;44.40;;;25.80;;
63567;SDS011;49715;42.386;20.434;2022-10-30T07:01:43;40.78;;;25.60;;
63567;SDS011;49715;42.386;20.434;2022-10-30T07:04:15;42.00;;;25.23;;
63567;SDS011;49715;42.386;20.434;2022-10-30T07:06:43;40.10;;;23.85;;
63567;SDS011;49715;42.386;20.434;2022-10-30T07:09:10;37.38;;;23.40;;
63567;SDS011;49715;42.386;20.434;2022-10-30T07:11:36;38.38;;;21.80;;
63567;SDS011;49715;42.386;20.434;2022-10-30T07:14:25;41.03;;;24.13;;
63567;SDS011;49715;42.386;20.434;2022-10-30T07:17:15;46.13;;;24.15;;
63567;SDS011;49715;42.386;20.434;2022-10-30T07:19:47;40.28;;;23.73;;
63567;SDS011;49715;42.386;20.434;2022-10-30T07:24:43;39.45;;;24.02;;
63567;SDS011;49715;42.386;20.434;2022-10-30T07:27:16;44.67;;;25.65;;
63567;SDS011;49715;42.386;20.434;2022-10-30T07:30:13;44.20;;;25.70;;
63567;SDS011;49715;42.386;20.434;2022-10-30T07:33:03;37.30;;;24.27;;
63567;SDS011;49715;42.386;20.434;2022-10-30T07:35:50;46.63;;;26.75;;
63567;SDS011;49715;42.386;20.434;2022-10-30T07:38:35;37.50;;;23.70;;
63567;SDS011;49715;42.386;20.434;2022-10-30T07:41:19;34.67;;;23.58;;
63567;SDS011;49715;42.386;20.434;2022-10-30T07:43:49;45.97;;;23.80;;
63567;SDS011;49715;42.386;20.434;2022-10-30T07:46:48;36.88;;;24.02;;
63567;SDS011;49715;42.386;20.434;2022-10-30T07:49:24;40.40;;;21.60;;
63567;SDS011;49715;42.386;20.434;2022-10-30T07:51:57;32.22;;;22.17;;
63567;SDS011;49715;42.386;20.434;2022-10-30T07:54:24;36.17;;;21.80;;
63567;SDS011;49715;42.386;20.434;2022-10-30T07:56:51;36.63;;;22.92;;
63567;SDS011;49715;42.386;20.434;2022-10-30T07:59:17;45.27;;;27.40;;
63567;SDS011;49715;42.386;20.434;2022-10-30T08:01:59;39.20;;;25.92;;
63567;SDS011;49715;42.386;20.434;2022-10-30T08:04:33;37.90;;;21.25;;
63567;SDS011;49715;42.386;20.434;2022-10-30T08:07:09;32.38;;;22.08;;
63567;SDS011;49715;42.386;20.434;2022-10-30T08:09:35;33.00;;;22.37;;
63567;SDS011;49715;42.386;20.434;2022-10-30T08:12:02;33.43;;;21.73;;
63567;SDS011;49715;42.386;20.434;2022-10-30T08:14:28;32.10;;;20.25;;
63567;SDS011;49715;42.386;20.434;2022-10-30T08:16:55;29.95;;;19.38;;
63567;SDS011;49715;42.386;20.434;2022-10-30T08:19:22;34.17;;;19.92;;
63567;SDS011;49715;42.386;20.434;2022-10-30T08:21:48;35.70;;;19.47;;
63567;SDS011;49715;42.386;20.434;2022-10-30T08:24:17;27.95;;;19.50;;
63567;SDS011;49715;42.386;20.434;2022-10-30T08:26:46;33.42;;;20.08;;
63567;SDS011;49715;42.386;20.434;2022-10-30T08:29:13;30.02;;;18.10;;
63567;SDS011;49715;42.386;20.434;2022-10-30T08:34:21;32.47;;;19.58;;
63567;SDS011;49715;42.386;20.434;2022-10-30T08:36:55;27.23;;;16.60;;
63567;SDS011;49715;42.386;20.434;2022-10-30T08:39:23;28.30;;;18.08;;
63567;SDS011;49715;42.386;20.434;2022-10-30T08:42:08;27.85;;;17.88;;
63567;SDS011;49715;42.386;20.434;2022-10-30T08:44:40;26.83;;;18.75;;
63567;SDS011;49715;42.386;20.434;2022-10-30T08:47:22;34.15;;;17.75;;
63567;SDS011;49715;42.386;20.434;2022-10-30T08:49:49;27.73;;;18.20;;
63567;SDS011;49715;42.386;20.434;2022-10-30T08:52:19;31.25;;;19.05;;
63567;SDS011;49715;42.386;20.434;2022-10-30T08:54:51;24.60;;;17.02;;
63567;SDS011;49715;42.386;20.434;2022-10-30T08:57:19;25.10;;;13.52;;
63567;SDS011;49715;42.386;20.434;2022-10-30T08:59:45;22.13;;;14.20;;
63567;SDS011;49715;42.386;20.434;2022-10-30T09:02:31;23.52;;;14.55;;
63567;SDS011;49715;42.386;20.434;2022-10-30T09:05:17;25.05;;;15.85;;
63567;SDS011;49715;42.386;20.434;2022-10-30T09:08:10;26.40;;;16.17;;
63567;SDS011;49715;42.386;20.434;2022-10-30T09:10:57;23.15;;;14.90;;
63567;SDS011;49715;42.386;20.434;2022-10-30T09:13:24;27.08;;;15.98;;
63567;SDS011;49715;42.386;20.434;2022-10-30T09:15:52;24.70;;;14.60;;
63567;SDS011;49715;42.386;20.434;2022-10-30T09:18:19;21.88;;;13.18;;
63567;SDS011;49715;42.386;20.434;2022-10-30T09:20:47;20.75;;;12.75;;
63567;SDS011;49715;42.386;20.434;2022-10-30T09:23:14;17.80;;;11.98;;
63567;SDS011;49715;42.386;20.434;2022-10-30T09:25:44;23.38;;;12.60;;
63567;SDS011;49715;42.386;20.434;2022-10-30T09:28:18;16.67;;;11.80;;
63567;SDS011;49715;42.386;20.434;2022-10-30T09:31:22;21.50;;;11.32;;
63567;SDS011;49715;42.386;20.434;2022-10-30T09:33:49;18.75;;;11.60;;
63567;SDS011;49715;42.386;20.434;2022-10-30T09:36:34;18.10;;;10.77;;
63567;SDS011;49715;42.386;20.434;2022-10-30T09:39:00;21.05;;;12.13;;
63567;SDS011;49715;42.386;20.434;2022-10-30T09:42:14;19.40;;;11.75;;
63567;SDS011;49715;42.386;20.434;2022-10-30T10:00:21;19.35;;;11.40;;
63567;SDS011;49715;42.386;20.434;2022-10-30T10:06:01;15.05;;;9.95;;
63567;SDS011;49715;42.386;20.434;2022-10-30T10:08:47;16.47;;;10.27;;
63567;SDS011;49715;42.386;20.434;2022-10-30T10:11:53;15.23;;;9.77;;
63567;SDS011;49715;42.386;20.434;2022-10-30T10:14:25;15.32;;;8.93;;
63567;SDS011;49715;42.386;20.434;2022-10-30T10:16:55;14.88;;;10.38;;
63567;SDS011;49715;42.386;20.434;2022-10-30T10:22:21;16.00;;;10.15;;
63567;SDS011;49715;42.386;20.434;2022-10-30T10:24:55;16.25;;;9.85;;
63567;SDS011;49715;42.386;20.434;2022-10-30T10:30:24;18.92;;;9.90;;
63567;SDS011;49715;42.386;20.434;2022-10-30T10:41:00;17.48;;;10.55;;
63567;SDS011;49715;42.386;20.434;2022-10-30T10:54:22;13.18;;;9.15;;
63567;SDS011;49715;42.386;20.434;2022-10-30T10:57:24;14.73;;;9.45;;
63567;SDS011;49715;42.386;20.434;2022-10-30T10:59:53;15.50;;;8.43;;
63567;SDS011;49715;42.386;20.434;2022-10-30T11:02:27;16.63;;;9.05;;
63567;SDS011;49715;42.386;20.434;2022-10-30T11:05:05;12.02;;;8.50;;
63567;SDS011;49715;42.386;20.434;2022-10-30T11:07:47;15.35;;;8.25;;
63567;SDS011;49715;42.386;20.434;2022-10-30T11:10:16;14.10;;;9.15;;
63567;SDS011;49715;42.386;20.434;2022-10-30T11:12:44;14.63;;;8.43;;
63567;SDS011;49715;42.386;20.434;2022-10-30T11:32:00;10.32;;;6.70;;
63567;SDS011;49715;42.386;20.434;2022-10-30T11:34:31;11.73;;;6.90;;
63567;SDS011;49715;42.386;20.434;2022-10-30T11:37:04;14.63;;;8.43;;
63567;SDS011;49715;42.386;20.434;2022-10-30T11:39:34;12.98;;;6.95;;
63567;SDS011;49715;42.386;20.434;2022-10-30T11:42:11;17.33;;;7.95;;
63567;SDS011;49715;42.386;20.434;2022-10-30T11:47:13;13.80;;;8.05;;
63567;SDS011;49715;42.386;20.434;2022-10-30T11:49:48;9.63;;;6.57;;
63567;SDS011;49715;42.386;20.434;2022-10-30T11:54:47;10.85;;;5.80;;
63567;SDS011;49715;42.386;20.434;2022-10-30T11:57:35;14.35;;;5.60;;
63567;SDS011;49715;42.386;20.434;2022-10-30T12:00:12;10.75;;;5.00;;
63567;SDS011;49715;42.386;20.434;2022-10-30T12:02:43;8.95;;;5.38;;
63567;SDS011;49715;42.386;20.434;2022-10-30T12:10:44;10.93;;;5.72;;
63567;SDS011;49715;42.386;20.434;2022-10-30T12:13:20;9.77;;;5.88;;
63567;SDS011;49715;42.386;20.434;2022-10-30T12:16:12;12.50;;;5.50;;
63567;SDS011;49715;42.386;20.434;2022-10-30T12:18:40;10.35;;;5.32;;
63567;SDS011;49715;42.386;20.434;2022-10-30T12:21:08;10.60;;;5.63;;
63567;SDS011;49715;42.386;20.434;2022-10-30T12:23:35;9.30;;;5.47;;
63567;SDS011;49715;42.386;20.434;2022-10-30T12:26:06;15.35;;;5.75;;
63567;SDS011;49715;42.386;20.434;2022-10-30T12:28:36;8.73;;;5.25;;
63567;SDS011;49715;42.386;20.434;2022-10-30T12:31:14;9.32;;;5.30;;
63567;SDS011;49715;42.386;20.434;2022-10-30T12:34:03;11.27;;;5.95;;
63567;SDS011;49715;42.386;20.434;2022-10-30T12:36:50;9.18;;;5.35;;
63567;SDS011;49715;42.386;20.434;2022-10-30T12:39:43;10.27;;;5.03;;
63567;SDS011;49715;42.386;20.434;2022-10-30T12:42:26;8.35;;;5.32;;
63567;SDS011;49715;42.386;20.434;2022-10-30T12:55:23;13.18;;;5.40;;
63567;SDS011;49715;42.386;20.434;2022-10-30T13:00:32;12.02;;;5.35;;
63567;SDS011;49715;42.386;20.434;2022-10-30T13:06:06;10.70;;;5.03;;
63567;SDS011;49715;42.386;20.434;2022-10-30T13:11:15;13.02;;;5.10;;
63567;SDS011;49715;42.386;20.434;2022-10-30T13:13:52;10.32;;;4.45;;
63567;SDS011;49715;42.386;20.434;2022-10-30T13:16:24;7.53;;;4.82;;
63567;SDS011;49715;42.386;20.434;2022-10-30T13:18:55;10.38;;;5.10;;
63567;SDS011;49715;42.386;20.434;2022-10-30T13:24:22;17.42;;;7.95;;
63567;SDS011;49715;42.386;20.434;2022-10-30T13:26:54;11.32;;;6.10;;
63567;SDS011;49715;42.386;20.434;2022-10-30T13:29:30;14.02;;;6.30;;
63567;SDS011;49715;42.386;20.434;2022-10-30T13:37:07;19.10;;;8.27;;
63567;SDS011;49715;42.386;20.434;2022-10-30T13:39:41;12.68;;;8.00;;
63567;SDS011;49715;42.386;20.434;2022-10-30T13:42:32;19.65;;;8.43;;
63567;SDS011;49715;42.386;20.434;2022-10-30T13:53:23;16.38;;;8.30;;
63567;SDS011;49715;42.386;20.434;2022-10-30T13:55:54;24.08;;;9.68;;
63567;SDS011;49715;42.386;20.434;2022-10-30T13:58:33;18.58;;;7.35;;
63567;SDS011;49715;42.386;20.434;2022-10-30T14:01:24;20.88;;;9.63;;
63567;SDS011;49715;42.386;20.434;2022-10-30T14:09:13;14.55;;;6.10;;
63567;SDS011;49715;42.386;20.434;2022-10-30T14:11:53;17.48;;;7.43;;
63567;SDS011;49715;42.386;20.434;2022-10-30T14:14:30;19.75;;;7.88;;
63567;SDS011;49715;42.386;20.434;2022-10-30T14:17:13;14.40;;;7.60;;
63567;SDS011;49715;42.386;20.434;2022-10-30T14:22:30;11.27;;;5.82;;
63567;SDS011;49715;42.386;20.434;2022-10-30T14:24:57;14.27;;;5.93;;
63567;SDS011;49715;42.386;20.434;2022-10-30T14:27:31;10.57;;;5.20;;
63567;SDS011;49715;42.386;20.434;2022-10-30T14:29:58;10.52;;;5.70;;
63567;SDS011;49715;42.386;20.434;2022-10-30T14:39:49;17.77;;;8.07;;
63567;SDS011;49715;42.386;20.434;2022-10-30T14:42:19;18.48;;;9.05;;
63567;SDS011;49715;42.386;20.434;2022-10-30T15:10:03;29.58;;;10.02;;
63567;SDS011;49715;42.386;20.434;2022-10-30T15:15:16;34.25;;;14.57;;
63567;SDS011;49715;42.386;20.434;2022-10-30T15:17:47;23.10;;;11.73;;
63567;SDS011;49715;42.386;20.434;2022-10-30T15:20:20;24.27;;;13.95;;
63567;SDS011;49715;42.386;20.434;2022-10-30T15:22:47;29.75;;;16.45;;
63567;SDS011;49715;42.386;20.434;2022-10-30T15:25:18;32.05;;;13.90;;
63567;SDS011;49715;42.386;20.434;2022-10-30T15:27:47;32.42;;;17.15;;
63567;SDS011;49715;42.386;20.434;2022-10-30T15:30:22;43.45;;;19.30;;
63567;SDS011;49715;42.386;20.434;2022-10-30T15:32:50;28.80;;;18.45;;
63567;SDS011;49715;42.386;20.434;2022-10-30T15:35:18;37.92;;;21.63;;
63567;SDS011;49715;42.386;20.434;2022-10-30T15:40:22;36.40;;;19.27;;
63567;SDS011;49715;42.386;20.434;2022-10-30T15:42:49;36.55;;;20.25;;
63567;SDS011;49715;42.386;20.434;2022-10-30T15:45:22;37.97;;;19.33;;
63567;SDS011;49715;42.386;20.434;2022-10-30T15:47:56;44.50;;;20.55;;
63567;SDS011;49715;42.386;20.434;2022-10-30T15:50:26;30.08;;;18.55;;
63567;SDS011;49715;42.386;20.434;2022-10-30T15:55:20;33.47;;;17.27;;
63567;SDS011;49715;42.386;20.434;2022-10-30T15:57:52;31.85;;;16.60;;
63567;SDS011;49715;42.386;20.434;2022-10-30T16:00:22;39.60;;;17.63;;
63567;SDS011;49715;42.386;20.434;2022-10-30T16:03:06;35.58;;;18.80;;
63567;SDS011;49715;42.386;20.434;2022-10-30T16:05:41;34.13;;;19.17;;
63567;SDS011;49715;42.386;20.434;2022-10-30T16:08:11;31.95;;;19.25;;
63567;SDS011;49715;42.386;20.434;2022-10-30T16:10:41;37.17;;;19.63;;
63567;SDS011;49715;42.386;20.434;2022-10-30T16:13:11;129.55;;;50.65;;
63567;SDS011;49715;42.386;20.434;2022-10-30T16:15:44;107.32;;;45.20;;
63567;SDS011;49715;42.386;20.434;2022-10-30T16:18:14;119.50;;;49.42;;
63567;SDS011;49715;42.386;20.434;2022-10-30T16:20:52;73.07;;;31.95;;
63567;SDS011;49715;42.386;20.434;2022-10-30T16:23:20;68.80;;;28.35;;
63567;SDS011;49715;42.386;20.434;2022-10-30T16:25:48;51.25;;;25.10;;
63567;SDS011;49715;42.386;20.434;2022-10-30T16:28:24;65.53;;;25.02;;
63567;SDS011;49715;42.386;20.434;2022-10-30T16:30:55;54.58;;;25.95;;
63567;SDS011;49715;42.386;20.434;2022-10-30T16:33:25;47.63;;;25.60;;
63567;SDS011;49715;42.386;20.434;2022-10-30T16:35:53;57.80;;;30.80;;
63567;SDS011;49715;42.386;20.434;2022-10-30T16:38:21;57.83;;;33.20;;
63567;SDS011;49715;42.386;20.434;2022-10-30T16:40:49;61.53;;;33.90;;
63567;SDS011;49715;42.386;20.434;2022-10-30T16:43:26;75.53;;;43.75;;
63567;SDS011;49715;42.386;20.434;2022-10-30T16:46:22;77.10;;;43.60;;
63567;SDS011;49715;42.386;20.434;2022-10-30T16:48:43;81.82;;;45.30;;
63567;SDS011;49715;42.386;20.434;2022-10-30T16:51:17;69.23;;;45.57;;
63567;SDS011;49715;42.386;20.434;2022-10-30T16:53:46;79.13;;;45.88;;
63567;SDS011;49715;42.386;20.434;2022-10-30T16:56:16;82.93;;;44.92;;
63567;SDS011;49715;42.386;20.434;2022-10-30T16:58:47;80.60;;;43.50;;
63567;SDS011;49715;42.386;20.434;2022-10-30T17:01:15;85.50;;;46.03;;
63567;SDS011;49715;42.386;20.434;2022-10-30T17:03:42;89.20;;;44.63;;
63567;SDS011;49715;42.386;20.434;2022-10-30T17:09:08;83.88;;;43.45;;
63567;SDS011;49715;42.386;20.434;2022-10-30T17:11:46;90.50;;;43.08;;
63567;SDS011;49715;42.386;20.434;2022-10-30T17:14:28;72.10;;;43.40;;
63567;SDS011;49715;42.386;20.434;2022-10-30T17:17:11;88.72;;;43.35;;
63567;SDS011;49715;42.386;20.434;2022-10-30T17:19:46;80.20;;;42.95;;
63567;SDS011;49715;42.386;20.434;2022-10-30T17:22:15;81.70;;;43.70;;
63567;SDS011;49715;42.386;20.434;2022-10-30T17:24:45;77.70;;;43.17;;
63567;SDS011;49715;42.386;20.434;2022-10-30T17:27:26;69.68;;;40.05;;
63567;SDS011;49715;42.386;20.434;2022-10-30T17:30:03;83.97;;;43.22;;
63567;SDS011;49715;42.386;20.434;2022-10-30T17:33:02;103.40;;;44.28;;
63567;SDS011;49715;42.386;20.434;2022-10-30T17:35:47;76.90;;;40.03;;
63567;SDS011;49715;42.386;20.434;2022-10-30T17:40:40;72.35;;;41.17;;
63567;SDS011;49715;42.386;20.434;2022-10-30T17:43:10;98.22;;;45.25;;
63567;SDS011;49715;42.386;20.434;2022-10-30T17:45:41;93.47;;;45.88;;
63567;SDS011;49715;42.386;20.434;2022-10-30T17:48:17;85.93;;;45.92;;
63567;SDS011;49715;42.386;20.434;2022-10-30T17:50:46;109.25;;;48.25;;
63567;SDS011;49715;42.386;20.434;2022-10-30T17:53:14;67.90;;;37.88;;
63567;SDS011;49715;42.386;20.434;2022-10-30T17:55:43;84.57;;;44.80;;